Time;durP1;ratioP1;P1;durP2;ratioP2;P2;SDS_P1;SDS_P2;PMS_P1;PMS_P2;Temp;Humidity;BMP_temperature;BMP_pressure;BME280_temperature;BME280_humidity;BME280_pressure;Samples;Min_cycle;Max_cycle;Signal;HPM_P1;HPM_P2
2021/01/21 00:01:11;;;;;;;8.87;3.63;;;8.00;57.60;;;;;;5049491;28;20595;-70
2021/01/21 00:03:37;;;;;;;5.93;4.10;;;8.00;57.20;;;;;;5049538;28;20196;-71
2021/01/21 00:06:03;;;;;;;6.83;4.17;;;8.00;57.70;;;;;;5049482;28;20279;-71
2021/01/21 00:08:29;;;;;;;10.30;6.10;;;8.00;59.20;;;;;;5049399;28;20255;-71
2021/01/21 00:10:55;;;;;;;9.27;6.57;;;7.80;59.60;;;;;;5050116;28;20427;-70
2021/01/21 00:13:21;;;;;;;9.87;5.87;;;7.70;61.90;;;;;;5063363;28;20279;-70
2021/01/21 00:15:46;;;;;;;11.40;6.73;;;7.50;61.70;;;;;;5049219;28;20523;-71
2021/01/21 00:18:12;;;;;;;7.93;5.23;;;7.40;63.40;;;;;;5048285;28;20188;-72
2021/01/21 00:20:38;;;;;;;8.73;5.77;;;7.40;61.70;;;;;;5050290;28;20234;-70
2021/01/21 00:23:04;;;;;;;11.17;6.07;;;7.30;63.20;;;;;;5050204;28;20191;-73
2021/01/21 00:25:29;;;;;;;9.40;5.10;;;7.20;63.70;;;;;;5048633;28;20204;-71
2021/01/21 00:27:55;;;;;;;7.97;4.90;;;7.10;63.80;;;;;;5049267;28;20247;-70
2021/01/21 00:30:21;;;;;;;6.77;4.83;;;7.00;64.40;;;;;;5049541;28;20181;-71
2021/01/21 00:32:47;;;;;;;9.53;5.30;;;7.00;64.80;;;;;;5062982;28;20188;-71
2021/01/21 00:35:16;;;;;;;8.70;4.77;;;7.00;64.80;;;;;;5059618;28;20437;-70
2021/01/21 00:37:42;;;;;;;7.97;4.63;;;6.90;65.10;;;;;;5051169;28;20707;-69
2021/01/21 00:40:08;;;;;;;8.73;5.17;;;6.90;65.30;;;;;;5049940;28;20531;-72
2021/01/21 00:42:34;;;;;;;7.87;4.63;;;7.00;65.40;;;;;;5050054;28;20419;-70
2021/01/21 00:45:00;;;;;;;10.17;4.90;;;7.00;65.30;;;;;;5048398;28;20445;-71
2021/01/21 00:47:26;;;;;;;9.80;5.37;;;7.00;65.10;;;;;;5047593;28;20681;-71
2021/01/21 00:49:51;;;;;;;11.10;5.57;;;7.10;65.10;;;;;;5050449;28;20423;-72
2021/01/21 00:52:17;;;;;;;10.70;5.10;;;7.00;65.10;;;;;;5053656;28;20663;-71
2021/01/21 00:54:43;;;;;;;9.77;5.07;;;6.90;65.40;;;;;;5049263;28;20552;-69
2021/01/21 00:57:09;;;;;;;6.77;4.30;;;6.90;65.40;;;;;;5049007;28;20442;-69
2021/01/21 00:59:35;;;;;;;6.87;4.27;;;6.90;65.60;;;;;;5047362;28;20814;-71
2021/01/21 01:02:01;;;;;;;8.07;4.60;;;6.90;65.10;;;;;;5051315;28;20430;-70
2021/01/21 01:04:28;;;;;;;7.87;4.43;;;6.90;65.30;;;;;;5051956;28;20184;-71
2021/01/21 01:06:54;;;;;;;6.90;4.50;;;6.90;65.40;;;;;;5050247;28;20216;-72
2021/01/21 01:09:19;;;;;;;7.23;4.27;;;6.90;65.70;;;;;;5054809;28;20798;-70
2021/01/21 01:11:45;;;;;;;7.80;4.20;;;6.80;65.40;;;;;;5055535;28;20421;-72
2021/01/21 01:14:11;;;;;;;6.37;4.17;;;6.90;65.60;;;;;;5066918;28;20222;-69
2021/01/21 01:16:37;;;;;;;8.03;4.20;;;6.80;65.40;;;;;;5068549;28;20266;-70
2021/01/21 01:19:03;;;;;;;8.67;4.87;;;6.80;65.60;;;;;;5055572;28;20669;-70
2021/01/21 01:21:28;;;;;;;5.37;3.97;;;6.80;66.10;;;;;;5047910;28;20671;-71
2021/01/21 01:23:54;;;;;;;8.77;4.00;;;6.90;66.40;;;;;;5048752;28;20462;-69
2021/01/21 01:26:21;;;;;;;7.27;4.50;;;6.90;66.30;;;;;;5034958;28;20197;-72
2021/01/21 01:28:47;;;;;;;8.17;4.97;;;6.90;66.70;;;;;;5048811;28;20204;-71
2021/01/21 01:31:13;;;;;;;9.43;3.80;;;6.90;65.80;;;;;;5049241;28;20419;-70
2021/01/21 01:33:39;;;;;;;7.07;3.60;;;7.00;64.80;;;;;;5048753;28;21297;-71
2021/01/21 01:36:05;;;;;;;9.93;3.77;;;7.10;63.90;;;;;;5049643;28;20496;-71
2021/01/21 01:38:31;;;;;;;5.53;2.80;;;7.10;64.10;;;;;;5052069;28;20246;-70
2021/01/21 01:40:57;;;;;;;5.33;2.90;;;7.30;59.60;;;;;;5053656;28;21063;-72
2021/01/21 01:43:22;;;;;;;4.93;2.33;;;7.40;59.60;;;;;;5053526;28;20180;-71
2021/01/21 01:45:48;;;;;;;5.10;3.47;;;7.60;57.40;;;;;;5059838;28;20206;-72
2021/01/21 01:48:15;;;;;;;7.10;3.60;;;7.80;57.80;;;;;;5061752;28;20211;-72
2021/01/21 01:50:41;;;;;;;4.90;2.80;;;7.90;59.70;;;;;;5053471;28;20433;-71
2021/01/21 01:53:07;;;;;;;6.43;3.60;;;7.80;59.20;;;;;;5052073;28;20434;-69
2021/01/21 01:55:33;;;;;;;2.83;2.43;;;7.80;58.80;;;;;;5049403;28;20446;-70
2021/01/21 01:57:59;;;;;;;5.53;2.90;;;7.80;58.40;;;;;;5048718;28;20469;-72
2021/01/21 02:00:25;;;;;;;3.77;2.47;;;7.90;56.40;;;;;;5060840;28;20193;-70
2021/01/21 02:02:51;;;;;;;7.03;2.73;;;8.10;56.10;;;;;;5049256;28;20453;-73
2021/01/21 02:05:21;;;;;;;3.93;3.00;;;8.20;55.80;;;;;;5047697;28;20972;-70
2021/01/21 02:07:47;;;;;;;4.57;2.80;;;8.20;56.90;;;;;;5055126;28;20474;-71
2021/01/21 02:10:15;;;;;;;4.50;2.87;;;8.30;57.00;;;;;;5049260;28;20445;-69
2021/01/21 02:12:59;;;;;;;8.33;2.47;;;8.20;56.50;;;;;;5066448;28;20418;-70
2021/01/21 02:15:51;;;;;;;5.07;2.27;;;8.30;57.20;;;;;;5070607;28;20445;-71
2021/01/21 02:18:47;;;;;;;4.13;2.40;;;8.30;55.70;;;;;;5013019;28;20510;-72
2021/01/21 02:21:31;;;;;;;3.47;2.20;;;8.40;55.80;;;;;;5052678;28;20541;-73
2021/01/21 02:24:03;;;;;;;2.87;2.40;;;8.50;54.60;;;;;;5050615;28;20438;-70
2021/01/21 02:26:40;;;;;;;7.33;3.13;;;8.40;54.80;;;;;;5039105;28;20461;-69
2021/01/21 02:29:06;;;;;;;3.20;2.50;;;8.40;55.00;;;;;;5055517;28;20469;-70
2021/01/21 02:32:02;;;;;;;5.13;3.10;;;8.40;56.00;;;;;;5065109;28;20422;-70
2021/01/21 02:34:56;;;;;;;5.50;3.43;;;8.30;56.50;;;;;;5058972;28;20469;-69
2021/01/21 02:37:26;;;;;;;3.73;2.93;;;8.10;56.60;;;;;;5058373;28;20588;-71
2021/01/21 02:39:54;;;;;;;4.40;2.90;;;8.10;56.90;;;;;;5057469;28;20416;-70
2021/01/21 02:42:20;;;;;;;4.20;2.77;;;8.10;57.80;;;;;;5074081;28;20426;-71
2021/01/21 02:44:47;;;;;;;4.07;2.70;;;8.10;58.10;;;;;;5065031;28;20441;-72
2021/01/21 02:47:14;;;;;;;5.90;3.50;;;8.10;58.20;;;;;;5060832;28;20468;-71
2021/01/21 02:49:41;;;;;;;4.30;2.93;;;8.10;58.70;;;;;;5063817;28;20438;-71
2021/01/21 02:52:31;;;;;;;7.70;3.47;;;8.10;58.80;;;;;;5054391;28;20429;-71
2021/01/21 02:55:16;;;;;;;5.80;2.90;;;8.20;59.20;;;;;;5052435;28;20509;-72
2021/01/21 02:58:05;;;;;;;11.10;4.20;;;8.20;59.10;;;;;;5053261;28;20415;-71
2021/01/21 03:00:34;;;;;;;3.57;2.33;;;8.20;58.80;;;;;;5052576;28;20437;-72
2021/01/21 03:03:02;;;;;;;3.67;2.03;;;8.10;58.90;;;;;;5053371;28;20431;-71
2021/01/21 03:05:29;;;;;;;5.13;2.50;;;8.10;58.90;;;;;;5064492;28;20545;-72
2021/01/21 03:07:56;;;;;;;4.47;2.40;;;8.20;60.60;;;;;;5051842;28;20470;-69
2021/01/21 03:10:22;;;;;;;2.57;1.80;;;8.20;60.10;;;;;;5050990;28;20439;-71
2021/01/21 03:12:55;;;;;;;3.27;1.30;;;8.50;52.10;;;;;;5053470;28;20423;-70
2021/01/21 03:15:22;;;;;;;6.10;1.27;;;9.10;47.90;;;;;;5050229;28;20471;-69
2021/01/21 03:17:48;;;;;;;2.00;1.30;;;9.60;46.10;;;;;;5064975;28;20840;-70
2021/01/21 03:20:14;;;;;;;2.27;1.10;;;9.80;45.30;;;;;;5053638;28;20441;-70
2021/01/21 03:22:40;;;;;;;1.53;1.13;;;10.10;44.10;;;;;;5052829;28;20426;-70
2021/01/21 03:25:07;;;;;;;2.27;1.30;;;10.20;43.50;;;;;;5051382;28;20430;-71
2021/01/21 03:27:32;;;;;;;2.40;1.40;;;10.30;43.80;;;;;;5053606;28;21348;-71
2021/01/21 03:29:58;;;;;;;3.17;1.57;;;10.40;43.50;;;;;;5051772;28;20485;-70
2021/01/21 03:32:24;;;;;;;3.40;1.50;;;10.30;43.90;;;;;;5049577;28;20434;-69
2021/01/21 03:34:49;;;;;;;2.90;1.40;;;10.30;44.10;;;;;;5050141;28;20207;-71
2021/01/21 03:37:15;;;;;;;1.63;1.27;;;10.30;44.50;;;;;;5049996;28;20279;-72
2021/01/21 03:39:41;;;;;;;4.10;1.60;;;10.30;44.50;;;;;;5049651;28;20758;-70
2021/01/21 03:42:07;;;;;;;3.77;1.90;;;10.30;44.70;;;;;;5051406;28;20176;-70
2021/01/21 03:44:32;;;;;;;2.50;1.57;;;10.20;45.10;;;;;;5051149;28;20852;-70
2021/01/21 03:46:58;;;;;;;3.43;2.07;;;10.10;45.90;;;;;;5050950;28;20216;-71
2021/01/21 03:49:24;;;;;;;3.93;1.70;;;10.00;46.20;;;;;;5050433;28;20185;-70
2021/01/21 03:51:50;;;;;;;1.40;1.30;;;10.00;45.80;;;;;;5066874;28;20480;-71
2021/01/21 03:54:15;;;;;;;2.60;1.70;;;10.00;45.90;;;;;;5062906;28;20675;-70
2021/01/21 03:56:41;;;;;;;1.57;1.40;;;9.90;45.80;;;;;;5053617;28;20208;-70
2021/01/21 03:59:07;;;;;;;3.33;1.50;;;9.90;46.30;;;;;;5071232;28;20183;-70
2021/01/21 04:01:32;;;;;;;2.40;1.60;;;9.90;46.30;;;;;;5055377;28;20612;-71
2021/01/21 04:03:58;;;;;;;1.87;1.30;;;9.80;46.20;;;;;;5050300;28;20180;-71
2021/01/21 04:06:24;;;;;;;2.47;1.20;;;9.80;46.60;;;;;;5062121;28;20291;-71
2021/01/21 04:08:50;;;;;;;3.23;1.27;;;9.70;46.70;;;;;;5049146;28;20576;-71
2021/01/21 04:11:15;;;;;;;3.70;1.50;;;9.70;47.30;;;;;;5051293;28;20728;-70
2021/01/21 04:13:41;;;;;;;3.83;1.80;;;9.70;47.00;;;;;;5059690;28;20180;-70
2021/01/21 04:16:07;;;;;;;1.70;1.43;;;9.60;47.30;;;;;;5068653;28;20257;-71
2021/01/21 04:18:33;;;;;;;5.07;1.70;;;9.60;47.30;;;;;;5072937;28;20241;-70
2021/01/21 04:20:58;;;;;;;3.57;1.57;;;9.60;47.40;;;;;;5058948;28;20194;-70
2021/01/21 04:23:24;;;;;;;1.93;1.40;;;9.70;47.00;;;;;;5061945;28;20418;-71
2021/01/21 04:25:50;;;;;;;2.10;1.27;;;9.70;46.90;;;;;;5045784;28;20621;-71
2021/01/21 04:28:16;;;;;;;1.73;1.27;;;9.70;47.00;;;;;;5050634;28;20208;-71
2021/01/21 04:30:42;;;;;;;1.33;1.10;;;9.70;47.40;;;;;;5051055;28;20502;-70
2021/01/21 04:33:08;;;;;;;3.03;1.43;;;9.70;47.30;;;;;;5049529;28;20561;-71
2021/01/21 04:35:33;;;;;;;2.47;1.40;;;9.80;47.10;;;;;;5051083;28;20196;-70
2021/01/21 04:37:59;;;;;;;4.07;1.70;;;9.80;47.00;;;;;;5058142;28;20183;-71
2021/01/21 04:40:29;;;;;;;2.43;1.27;;;9.90;46.90;;;;;;5056544;28;20188;-71
2021/01/21 04:42:55;;;;;;;6.40;1.67;;;9.90;47.00;;;;;;5049127;28;20207;-71
2021/01/21 04:45:20;;;;;;;4.00;1.50;;;9.90;47.10;;;;;;5049276;28;20957;-70
2021/01/21 04:47:47;;;;;;;1.97;1.20;;;10.00;46.70;;;;;;5050032;28;20462;-70
2021/01/21 04:50:13;;;;;;;3.43;1.20;;;10.00;46.60;;;;;;5052249;28;20673;-71
2021/01/21 04:52:43;;;;;;;5.23;1.10;;;10.10;46.50;;;;;;5051401;28;20430;-70
2021/01/21 04:55:14;;;;;;;2.70;1.43;;;10.10;46.50;;;;;;5064529;28;20418;-69
2021/01/21 04:57:49;;;;;;;4.07;1.27;;;10.20;45.90;;;;;;5066904;28;20975;-70
2021/01/21 05:00:16;;;;;;;2.10;1.00;;;10.30;45.70;;;;;;5051007;28;20430;-72
2021/01/21 05:02:44;;;;;;;2.50;0.93;;;10.30;45.70;;;;;;5049938;28;20418;-70
2021/01/21 05:05:11;;;;;;;4.37;1.10;;;10.30;45.50;;;;;;5062027;28;20432;-69
2021/01/21 05:07:40;;;;;;;1.20;0.90;;;10.40;45.30;;;;;;5049867;28;20501;-70
2021/01/21 05:10:10;;;;;;;1.63;1.00;;;10.40;45.10;;;;;;5053665;28;20512;-70
2021/01/21 05:12:36;;;;;;;1.90;0.93;;;10.40;45.30;;;;;;5067829;28;20434;-70
2021/01/21 05:15:03;;;;;;;1.40;1.10;;;10.50;45.10;;;;;;5040911;28;20419;-72
2021/01/21 05:17:29;;;;;;;2.60;1.20;;;10.50;45.00;;;;;;5053226;28;20434;-70
2021/01/21 05:19:56;;;;;;;1.83;0.90;;;10.50;44.70;;;;;;5051321;28;20450;-71
2021/01/21 05:22:22;;;;;;;2.47;1.00;;;10.60;44.70;;;;;;5066479;28;20192;-71
2021/01/21 05:24:48;;;;;;;1.87;1.10;;;10.60;44.70;;;;;;5050777;28;20948;-72
2021/01/21 05:27:16;;;;;;;1.30;1.17;;;10.50;44.90;;;;;;5052476;28;20477;-70
2021/01/21 05:29:44;;;;;;;2.13;1.20;;;10.50;45.10;;;;;;5058110;28;20509;-71
2021/01/21 05:32:14;;;;;;;3.43;1.30;;;10.40;45.40;;;;;;5054054;28;20419;-71
2021/01/21 05:34:40;;;;;;;1.67;1.10;;;10.40;45.40;;;;;;5047919;28;20435;-71
2021/01/21 05:37:10;;;;;;;8.00;1.30;;;10.40;45.40;;;;;;5046976;28;20485;-71
2021/01/21 05:39:42;;;;;;;3.50;1.07;;;10.40;45.50;;;;;;5054681;28;20556;-71
2021/01/21 05:42:08;;;;;;;2.13;1.13;;;10.50;45.40;;;;;;5054014;28;20461;-70
2021/01/21 05:44:35;;;;;;;2.30;1.10;;;10.50;45.30;;;;;;5048071;28;21056;-70
2021/01/21 05:47:05;;;;;;;2.07;1.03;;;10.50;45.50;;;;;;5052154;28;20473;-71
2021/01/21 05:49:31;;;;;;;1.70;0.87;;;10.50;45.30;;;;;;5052547;28;20415;-70
2021/01/21 05:51:58;;;;;;;2.10;1.10;;;10.50;45.30;;;;;;5052425;28;20419;-70
2021/01/21 05:54:25;;;;;;;1.67;1.20;;;10.60;45.00;;;;;;5046774;28;20435;-71
2021/01/21 05:56:53;;;;;;;2.63;1.30;;;10.60;44.70;;;;;;5069139;28;20969;-71
2021/01/21 05:59:20;;;;;;;2.20;1.30;;;10.70;44.50;;;;;;5060291;28;20503;-71
2021/01/21 06:01:48;;;;;;;1.33;1.00;;;10.80;44.20;;;;;;5050768;28;20415;-71
2021/01/21 06:04:14;;;;;;;1.43;0.90;;;10.90;43.90;;;;;;5049761;28;20439;-72
2021/01/21 06:06:40;;;;;;;1.57;0.97;;;10.90;43.50;;;;;;5057305;28;20495;-70
2021/01/21 06:09:15;;;;;;;2.33;1.10;;;11.00;43.40;;;;;;5055931;28;20758;-71
2021/01/21 06:11:42;;;;;;;1.90;0.97;;;11.00;43.50;;;;;;5053016;28;20418;-71
2021/01/21 06:14:09;;;;;;;1.33;0.87;;;10.90;43.80;;;;;;5063613;28;20432;-70
2021/01/21 06:16:36;;;;;;;1.40;1.20;;;10.90;43.50;;;;;;5064411;28;20434;-71
2021/01/21 06:19:02;;;;;;;4.73;1.07;;;10.90;43.40;;;;;;5066087;28;20414;-70
2021/01/21 06:21:33;;;;;;;1.00;0.97;;;11.00;43.00;;;;;;5072207;28;20497;-71
2021/01/21 06:24:05;;;;;;;1.70;1.00;;;11.00;42.80;;;;;;5065902;28;20426;-70
2021/01/21 06:26:39;;;;;;;1.60;1.00;;;11.00;42.80;;;;;;5060327;28;20445;-70
2021/01/21 06:29:06;;;;;;;1.70;1.00;;;11.00;42.80;;;;;;5060899;28;20426;-72
2021/01/21 06:31:35;;;;;;;4.17;1.13;;;11.00;43.00;;;;;;5052757;28;20407;-70
2021/01/21 06:34:03;;;;;;;4.50;1.00;;;11.00;42.80;;;;;;5063612;28;20442;-71
2021/01/21 06:36:31;;;;;;;3.20;1.30;;;11.00;42.80;;;;;;5059900;28;20438;-70
2021/01/21 06:39:00;;;;;;;2.80;1.27;;;11.00;43.10;;;;;;5051788;28;20937;-70
2021/01/21 06:41:28;;;;;;;4.00;1.37;;;11.00;43.20;;;;;;5051668;28;20438;-71
2021/01/21 06:43:54;;;;;;;4.20;1.20;;;11.00;43.10;;;;;;5064951;28;20933;-71
2021/01/21 06:46:21;;;;;;;4.00;1.13;;;11.00;43.40;;;;;;5049347;28;20451;-70
2021/01/21 06:48:48;;;;;;;1.77;1.27;;;11.00;43.80;;;;;;5052099;28;20665;-70
2021/01/21 06:51:16;;;;;;;1.80;1.20;;;11.00;44.10;;;;;;5051773;28;20419;-70
2021/01/21 06:53:44;;;;;;;1.33;1.00;;;11.00;44.30;;;;;;5055245;28;20421;-72
2021/01/21 06:56:11;;;;;;;1.40;1.00;;;11.00;44.90;;;;;;5072366;28;20464;-71
2021/01/21 06:58:52;;;;;;;2.57;1.23;;;11.00;45.30;;;;;;5058675;28;20432;-70
2021/01/21 07:01:33;;;;;;;3.10;1.40;;;11.00;45.50;;;;;;5070280;28;20836;-70
2021/01/21 07:04:21;;;;;;;1.70;1.20;;;11.10;45.70;;;;;;5040447;28;20419;-71
2021/01/21 07:07:03;;;;;;;1.83;1.40;;;11.10;46.30;;;;;;5052783;28;20831;-71
2021/01/21 07:09:31;;;;;;;3.13;1.43;;;11.10;47.70;;;;;;5054620;28;20461;-70
2021/01/21 07:12:01;;;;;;;2.10;1.20;;;11.10;49.10;;;;;;5052572;28;20805;-71
2021/01/21 07:14:30;;;;;;;5.20;1.90;;;11.10;50.30;;;;;;5054651;28;20433;-75
2021/01/21 07:17:07;;;;;;;2.30;1.13;;;11.00;51.20;;;;;;5056333;28;20443;-74
2021/01/21 07:19:38;;;;;;;1.70;1.20;;;11.00;52.60;;;;;;5050043;28;20515;-76
2021/01/21 07:22:24;;;;;;;1.87;1.00;;;11.00;53.60;;;;;;5052503;28;20795;-72
2021/01/21 07:25:12;;;;;;;1.70;1.20;;;11.00;54.80;;;;;;5049447;28;20411;-75
2021/01/21 07:27:41;;;;;;;2.23;1.10;;;10.90;56.00;;;;;;5049121;28;20541;-74
2021/01/21 07:30:21;;;;;;;1.90;1.27;;;10.90;57.00;;;;;;5050494;28;20412;-74
2021/01/21 07:32:48;;;;;;;2.10;1.17;;;10.90;57.40;;;;;;5050570;28;20502;-76
2021/01/21 07:35:32;;;;;;;3.10;1.10;;;10.90;57.80;;;;;;5047921;28;20595;-74
2021/01/21 07:37:58;;;;;;;1.60;1.20;;;10.90;58.20;;;;;;5035896;28;20431;-76
2021/01/21 07:40:45;;;;;;;1.70;1.20;;;10.80;58.50;;;;;;5049751;28;20422;-73
2021/01/21 07:43:11;;;;;;;2.53;1.20;;;10.80;59.10;;;;;;5069797;28;20976;-74
2021/01/21 07:45:37;;;;;;;1.47;1.07;;;10.80;59.10;;;;;;5052947;28;20453;-73
2021/01/21 07:48:23;;;;;;;1.47;1.37;;;10.80;59.20;;;;;;5050889;28;20978;-75
2021/01/21 07:50:50;;;;;;;1.80;1.33;;;10.90;59.30;;;;;;5052329;28;20498;-74
2021/01/21 07:53:21;;;;;;;1.43;1.00;;;11.00;58.90;;;;;;5049826;28;20411;-74
2021/01/21 07:55:48;;;;;;;1.40;1.20;;;11.00;58.80;;;;;;5049321;28;20469;-74
2021/01/21 07:58:30;;;;;;;2.90;1.37;;;11.00;58.70;;;;;;5049932;28;20423;-75
2021/01/21 08:00:58;;;;;;;5.10;1.20;;;11.00;58.50;;;;;;5060275;28;20557;-75
2021/01/21 08:03:27;;;;;;;3.40;1.20;;;11.00;58.70;;;;;;5069591;28;20426;-75
2021/01/21 08:06:10;;;;;;;4.33;1.50;;;11.00;58.80;;;;;;5049835;28;20439;-71
2021/01/21 08:08:37;;;;;;;2.90;1.33;;;11.00;58.80;;;;;;5050669;28;20490;-70
2021/01/21 08:11:14;;;;;;;2.27;1.13;;;11.00;58.90;;;;;;5066814;28;20422;-72
2021/01/21 08:13:40;;;;;;;1.57;1.10;;;11.00;58.90;;;;;;5060740;28;20509;-71
2021/01/21 08:16:06;;;;;;;1.57;1.20;;;11.10;58.90;;;;;;5051085;28;20446;-71
2021/01/21 08:18:35;;;;;;;1.67;0.90;;;11.00;59.10;;;;;;5060940;28;20430;-71
2021/01/21 08:21:17;;;;;;;1.90;0.93;;;11.10;58.90;;;;;;5052102;28;20488;-72
2021/01/21 08:24:02;;;;;;;1.27;0.90;;;11.10;58.90;;;;;;5048423;28;20439;-71
2021/01/21 08:26:29;;;;;;;1.83;1.10;;;11.20;59.10;;;;;;5036732;28;20439;-71
2021/01/21 08:28:56;;;;;;;1.20;1.10;;;11.20;59.10;;;;;;5052878;28;20508;-70
2021/01/21 08:31:38;;;;;;;2.23;1.13;;;11.20;59.20;;;;;;5061465;28;20423;-71
2021/01/21 08:34:06;;;;;;;1.40;1.00;;;11.20;59.50;;;;;;5047848;28;20989;-69
2021/01/21 08:36:32;;;;;;;2.60;1.20;;;11.30;59.70;;;;;;5050550;28;20431;-71
2021/01/21 08:39:00;;;;;;;1.67;1.03;;;11.30;60.00;;;;;;5049891;28;20466;-71
2021/01/21 08:41:26;;;;;;;2.57;1.00;;;11.30;60.00;;;;;;5048195;28;20425;-71
2021/01/21 08:43:58;;;;;;;1.60;0.80;;;11.30;60.30;;;;;;5054828;28;20441;-71
2021/01/21 08:46:24;;;;;;;2.93;1.10;;;11.30;60.30;;;;;;5060285;28;21004;-71
2021/01/21 08:48:50;;;;;;;1.90;1.10;;;11.30;60.60;;;;;;5049202;28;20474;-71
2021/01/21 08:51:42;;;;;;;3.83;0.93;;;11.30;60.90;;;;;;5049363;28;20763;-71
2021/01/21 08:54:18;;;;;;;1.60;1.10;;;11.30;60.90;;;;;;5049042;28;20442;-70
2021/01/21 08:57:04;;;;;;;1.73;1.20;;;11.30;60.90;;;;;;5049245;28;20443;-71
2021/01/21 08:59:31;;;;;;;1.90;1.10;;;11.30;60.90;;;;;;5050143;28;20427;-71
2021/01/21 09:01:57;;;;;;;1.60;1.00;;;11.30;60.90;;;;;;5055722;28;20933;-71
2021/01/21 09:04:25;;;;;;;4.23;1.27;;;11.20;61.00;;;;;;5056196;28;20493;-72
2021/01/21 09:06:56;;;;;;;2.30;1.10;;;11.20;61.00;;;;;;5049511;28;20482;-70
2021/01/21 09:09:31;;;;;;;1.10;0.97;;;11.20;61.00;;;;;;5050120;28;20808;-71
2021/01/21 09:12:12;;;;;;;1.60;1.20;;;11.30;60.90;;;;;;5037991;28;20525;-71
2021/01/21 09:14:38;;;;;;;1.57;1.00;;;11.30;60.90;;;;;;5064291;28;20440;-70
2021/01/21 09:17:15;;;;;;;2.90;1.30;;;11.30;60.70;;;;;;5060194;28;20953;-71
2021/01/21 09:19:43;;;;;;;2.30;1.30;;;11.30;60.70;;;;;;5055783;28;20203;-71
2021/01/21 09:22:11;;;;;;;1.83;1.00;;;11.40;60.70;;;;;;5056127;28;20440;-72
2021/01/21 09:24:57;;;;;;;1.90;1.10;;;11.40;60.60;;;;;;5070320;28;20414;-71
2021/01/21 09:27:23;;;;;;;1.43;1.13;;;11.50;60.70;;;;;;5060686;28;20887;-71
2021/01/21 09:29:58;;;;;;;1.53;1.13;;;11.60;60.40;;;;;;5056132;28;20472;-70
2021/01/21 09:32:26;;;;;;;2.30;1.03;;;11.60;60.40;;;;;;5071780;28;20421;-71
2021/01/21 09:35:08;;;;;;;1.50;0.97;;;11.60;60.40;;;;;;5066076;28;20506;-73
2021/01/21 09:37:45;;;;;;;1.40;1.30;;;11.60;60.40;;;;;;5057055;28;20427;-71
2021/01/21 09:40:13;;;;;;;1.57;1.10;;;11.70;60.60;;;;;;5055160;28;20884;-71
2021/01/21 09:42:39;;;;;;;3.40;1.40;;;11.60;60.90;;;;;;5053591;28;20430;-71
2021/01/21 09:45:07;;;;;;;3.63;1.20;;;11.60;61.00;;;;;;5052495;28;20433;-70
2021/01/21 09:47:33;;;;;;;2.17;1.10;;;11.60;61.20;;;;;;5053019;28;20895;-71
2021/01/21 09:49:58;;;;;;;1.70;1.10;;;11.60;61.30;;;;;;5052250;28;20433;-70
2021/01/21 09:52:25;;;;;;;1.77;1.30;;;11.60;61.50;;;;;;5053179;28;20422;-70
2021/01/21 09:54:51;;;;;;;1.63;1.03;;;11.60;61.60;;;;;;5050783;28;20204;-71
2021/01/21 09:57:16;;;;;;;7.23;1.00;;;11.60;61.90;;;;;;5072345;28;20483;-74
2021/01/21 09:59:42;;;;;;;2.20;1.03;;;11.70;61.90;;;;;;5073847;28;20866;-70
2021/01/21 10:02:08;;;;;;;2.10;1.07;;;11.70;61.90;;;;;;5059587;28;20207;-72
2021/01/21 10:04:40;;;;;;;1.50;0.83;;;11.80;61.70;;;;;;5060976;28;20207;-71
2021/01/21 10:07:06;;;;;;;1.70;1.10;;;11.80;61.70;;;;;;5053955;28;20532;-72
2021/01/21 10:09:33;;;;;;;2.20;1.10;;;11.80;61.70;;;;;;5069189;28;20472;-71
2021/01/21 10:11:59;;;;;;;1.20;0.90;;;11.90;61.50;;;;;;5056186;28;20430;-71
2021/01/21 10:14:25;;;;;;;1.43;1.00;;;12.00;61.50;;;;;;5053001;28;20568;-71
2021/01/21 10:16:51;;;;;;;1.17;0.87;;;12.00;61.20;;;;;;5052129;28;20208;-71
2021/01/21 10:19:17;;;;;;;1.43;0.90;;;12.10;61.00;;;;;;5054458;28;20426;-71
2021/01/21 10:21:43;;;;;;;1.20;1.00;;;12.10;60.70;;;;;;5073853;28;20418;-70
2021/01/21 10:24:09;;;;;;;2.70;1.00;;;12.20;60.90;;;;;;5074868;28;20493;-72
2021/01/21 10:26:35;;;;;;;2.60;1.20;;;12.20;61.00;;;;;;5053651;28;20239;-70
2021/01/21 10:29:00;;;;;;;2.60;1.10;;;12.30;60.70;;;;;;5055569;28;20485;-72
2021/01/21 10:31:26;;;;;;;5.50;1.20;;;12.30;60.30;;;;;;5052101;28;20196;-72
2021/01/21 10:33:52;;;;;;;1.03;0.93;;;12.40;60.30;;;;;;5054416;28;20215;-70
2021/01/21 10:36:18;;;;;;;2.17;1.03;;;12.60;59.60;;;;;;5051389;28;20477;-72
2021/01/21 10:38:44;;;;;;;2.17;1.30;;;12.70;59.70;;;;;;5053479;28;20423;-70
2021/01/21 10:41:10;;;;;;;2.03;1.00;;;12.70;60.10;;;;;;5053507;28;20519;-71
2021/01/21 10:43:36;;;;;;;2.07;1.30;;;12.80;60.00;;;;;;5053217;28;20242;-73
2021/01/21 10:46:02;;;;;;;2.30;1.00;;;13.00;58.70;;;;;;5052215;28;20223;-71
2021/01/21 10:48:28;;;;;;;1.90;1.03;;;13.10;58.50;;;;;;5053138;28;20509;-72
2021/01/21 10:50:54;;;;;;;2.20;1.50;;;13.10;57.80;;;;;;5052841;28;20454;-70
2021/01/21 10:53:20;;;;;;;1.47;0.90;;;13.10;58.00;;;;;;5052928;28;20423;-71
2021/01/21 10:55:46;;;;;;;2.17;1.43;;;13.20;58.20;;;;;;5051742;28;20455;-70
2021/01/21 10:58:13;;;;;;;1.50;0.90;;;13.10;60.00;;;;;;5066881;28;20199;-71
2021/01/21 11:00:41;;;;;;;2.03;0.60;;;12.90;61.20;;;;;;5055520;28;20419;-71
2021/01/21 11:03:07;;;;;;;0.80;0.40;;;12.90;62.90;;;;;;5055141;28;20801;-72
2021/01/21 11:05:33;;;;;;;1.90;1.20;;;13.10;61.20;;;;;;5076958;28;20445;-72
2021/01/21 11:07:58;;;;;;;4.00;1.30;;;13.00;61.30;;;;;;5059645;28;20470;-71
2021/01/21 11:10:24;;;;;;;3.17;1.13;;;12.90;61.30;;;;;;5054004;28;20335;-70
2021/01/21 11:12:50;;;;;;;1.37;1.00;;;13.00;61.00;;;;;;5054105;28;20252;-71
2021/01/21 11:15:18;;;;;;;1.70;1.00;;;13.30;60.70;;;;;;5063111;28;20180;-72
2021/01/21 11:17:45;;;;;;;1.90;1.10;;;13.30;60.00;;;;;;5055131;28;20960;-71
2021/01/21 11:20:12;;;;;;;3.90;1.57;;;13.20;60.10;;;;;;5063263;28;20433;-72
2021/01/21 11:22:38;;;;;;;1.70;0.97;;;13.00;60.60;;;;;;5051322;28;20739;-71
2021/01/21 11:25:09;;;;;;;1.87;1.33;;;12.80;61.60;;;;;;5050785;28;20430;-70
2021/01/21 11:27:36;;;;;;;1.70;1.20;;;12.80;62.30;;;;;;5067628;28;20464;-71
2021/01/21 11:30:12;;;;;;;2.37;1.00;;;12.70;62.30;;;;;;5060811;28;20438;-73
2021/01/21 11:32:39;;;;;;;1.50;1.10;;;12.60;62.60;;;;;;5058400;28;20439;-71
2021/01/21 11:35:06;;;;;;;1.10;1.00;;;12.70;62.20;;;;;;5060120;28;20430;-73
2021/01/21 11:37:32;;;;;;;2.50;1.27;;;12.70;61.70;;;;;;5053188;28;20438;-72
2021/01/21 11:39:58;;;;;;;2.17;1.00;;;12.80;61.60;;;;;;5053427;28;20524;-73
2021/01/21 11:42:24;;;;;;;2.47;1.30;;;12.90;61.00;;;;;;5066271;28;20561;-72
2021/01/21 11:44:50;;;;;;;3.90;1.23;;;12.90;61.00;;;;;;5053574;28;20737;-72
2021/01/21 11:47:16;;;;;;;2.00;1.23;;;12.90;61.00;;;;;;5051826;28;20546;-72
2021/01/21 11:49:42;;;;;;;4.23;1.47;;;12.90;60.40;;;;;;5053075;28;20177;-71
2021/01/21 11:52:09;;;;;;;2.50;1.37;;;12.90;60.40;;;;;;5055746;28;20449;-72
2021/01/21 11:54:35;;;;;;;2.80;1.37;;;12.80;60.60;;;;;;5054080;28;20572;-71
2021/01/21 11:57:00;;;;;;;3.07;1.33;;;12.80;60.40;;;;;;5059450;28;20533;-71
2021/01/21 11:59:26;;;;;;;2.13;1.10;;;12.90;60.10;;;;;;5057238;28;20191;-72
2021/01/21 12:01:53;;;;;;;2.50;1.20;;;12.90;59.90;;;;;;5050754;28;20184;-72
2021/01/21 12:04:18;;;;;;;5.00;1.60;;;13.00;60.00;;;;;;5047654;28;20270;-71
2021/01/21 12:06:44;;;;;;;6.63;1.50;;;13.00;59.60;;;;;;5050278;28;20997;-73
2021/01/21 12:09:10;;;;;;;2.03;1.30;;;13.00;59.70;;;;;;5050312;28;20208;-70
2021/01/21 12:11:36;;;;;;;3.30;1.20;;;13.00;59.50;;;;;;5052373;28;20211;-72
2021/01/21 12:14:02;;;;;;;6.80;1.70;;;13.00;59.50;;;;;;5048769;28;20437;-70
2021/01/21 12:16:28;;;;;;;2.10;1.47;;;13.00;59.30;;;;;;5049329;28;20673;-70
2021/01/21 12:18:54;;;;;;;3.13;1.43;;;13.20;59.10;;;;;;5050026;28;20995;-71
2021/01/21 12:21:21;;;;;;;3.23;1.67;;;13.20;58.90;;;;;;5049615;28;20422;-72
2021/01/21 12:23:47;;;;;;;2.70;1.27;;;13.30;58.80;;;;;;5049261;28;20965;-71
2021/01/21 12:26:12;;;;;;;6.87;1.30;;;13.30;58.70;;;;;;5060490;28;20462;-69
2021/01/21 12:28:38;;;;;;;1.47;1.13;;;13.20;58.80;;;;;;5049302;28;20583;-72
2021/01/21 12:31:05;;;;;;;2.73;1.20;;;13.30;58.70;;;;;;5048320;28;20477;-71
2021/01/21 12:33:31;;;;;;;2.80;1.50;;;13.30;58.50;;;;;;5057031;28;20496;-70
2021/01/21 12:35:57;;;;;;;4.20;1.00;;;13.30;58.50;;;;;;5053424;28;20491;-71
2021/01/21 12:38:23;;;;;;;3.43;1.60;;;13.50;58.70;;;;;;5050202;28;20821;-70
2021/01/21 12:40:49;;;;;;;3.87;1.43;;;13.50;58.40;;;;;;5067100;28;20560;-72
2021/01/21 12:43:14;;;;;;;2.60;1.40;;;13.50;58.10;;;;;;5059007;28;20206;-71
2021/01/21 12:45:42;;;;;;;1.97;1.13;;;13.60;58.10;;;;;;5048487;28;20258;-72
2021/01/21 12:48:09;;;;;;;4.40;1.20;;;13.50;59.20;;;;;;5048508;28;20691;-72
2021/01/21 12:50:35;;;;;;;2.70;1.17;;;13.40;60.40;;;;;;5066632;28;20423;-71
2021/01/21 12:53:00;;;;;;;2.50;1.20;;;13.20;61.50;;;;;;5058989;28;20434;-70
2021/01/21 12:55:26;;;;;;;1.70;1.43;;;13.20;61.20;;;;;;5048523;28;20438;-71
2021/01/21 12:57:52;;;;;;;1.57;1.10;;;13.20;61.70;;;;;;5060428;28;20191;-71